createdAt,value
2018-11-14T01:29:44.664Z,7.53
2018-11-14T01:29:45.238Z,7.55
2018-11-14T01:29:45.836Z,7.55
2018-11-14T01:29:46.435Z,7.56
2018-11-14T01:29:47.036Z,7.50
2018-11-14T01:29:47.636Z,7.56
2018-11-14T01:29:48.236Z,7.50
2018-11-14T01:29:48.835Z,7.55
2018-11-14T01:30:43.340Z,7.52
2018-11-14T01:30:44.010Z,7.49
2018-11-14T01:30:44.690Z,7.50
2018-11-14T01:30:45.254Z,7.50
2018-11-14T01:30:46.893Z,7.56
2018-11-14T01:30:47.364Z,7.52
2018-11-14T01:30:47.689Z,7.50
2018-11-14T01:30:47.901Z,7.53
2018-11-14T01:31:41.992Z,7.53
2018-11-14T01:31:42.589Z,7.52
2018-11-14T01:31:43.189Z,7.55
2018-11-14T01:31:43.789Z,7.52
2018-11-14T01:31:44.388Z,7.47
2018-11-14T01:31:44.988Z,7.53
2018-11-14T01:31:45.588Z,7.53
2018-11-14T01:31:46.188Z,7.53
2018-11-14T01:32:40.668Z,7.55
2018-11-14T01:32:41.265Z,7.50
2018-11-14T01:32:41.866Z,7.52
2018-11-14T01:32:42.465Z,7.52
2018-11-14T01:32:43.066Z,7.55
2018-11-14T01:32:43.665Z,7.56
2018-11-14T01:32:44.264Z,7.52
2018-11-14T01:32:44.864Z,7.52
2018-11-14T01:33:39.345Z,7.53
2018-11-14T01:33:39.942Z,7.55
2018-11-14T01:33:40.541Z,7.56
2018-11-14T01:33:41.141Z,7.49
2018-11-14T01:33:41.741Z,7.55
2018-11-14T01:33:42.340Z,7.55
2018-11-14T01:33:42.941Z,7.52
2018-11-14T01:33:43.540Z,7.55
2018-11-14T01:34:36.997Z,7.44
2018-11-14T01:34:37.595Z,7.40
2018-11-14T01:34:38.197Z,7.52
2018-11-14T01:34:38.795Z,7.52
2018-11-14T01:34:39.393Z,7.50
2018-11-14T01:34:39.994Z,7.52
2018-11-14T01:34:40.594Z,7.56
2018-11-14T01:34:41.194Z,7.50
2018-11-14T01:35:35.716Z,7.38
2018-11-14T01:35:36.278Z,7.52
2018-11-14T01:35:36.893Z,7.42
2018-11-14T01:35:37.487Z,7.47
2018-11-14T01:35:38.072Z,7.44
2018-11-14T01:35:38.703Z,7.41
2018-11-14T01:35:39.272Z,7.42
2018-11-14T01:35:39.894Z,7.58
2018-11-14T01:36:34.352Z,7.44
2018-11-14T01:36:34.944Z,7.47
2018-11-14T01:36:35.544Z,7.47
2018-11-14T01:36:36.144Z,7.42
2018-11-14T01:36:36.742Z,7.37
2018-11-14T01:36:37.343Z,7.41
2018-11-14T01:36:37.942Z,7.41
2018-11-14T01:36:38.543Z,7.44
2018-11-14T01:37:33.026Z,7.42
2018-11-14T01:37:33.622Z,7.40
2018-11-14T01:37:34.222Z,7.52
2018-11-14T01:37:34.821Z,7.47
2018-11-14T01:37:35.422Z,7.50
2018-11-14T01:37:36.024Z,7.37
2018-11-14T01:37:36.619Z,7.41
2018-11-14T01:37:37.220Z,7.45
2018-11-14T01:38:30.678Z,7.40
2018-11-14T01:38:31.275Z,7.53
2018-11-14T01:38:31.876Z,7.53
2018-11-14T01:38:32.476Z,7.56
2018-11-14T01:38:33.076Z,7.53
2018-11-14T01:38:33.675Z,7.53
2018-11-14T01:38:34.274Z,7.50
2018-11-14T01:38:34.874Z,7.53
2018-11-14T01:39:28.331Z,7.41
2018-11-14T01:39:28.928Z,7.42
2018-11-14T01:39:29.527Z,7.53
2018-11-14T01:39:30.126Z,7.49
2018-11-14T01:39:30.726Z,7.52
2018-11-14T01:39:31.325Z,7.38
2018-11-14T01:39:31.926Z,7.55
2018-11-14T01:39:32.526Z,7.58
2018-11-14T01:40:27.029Z,7.44
2018-11-14T01:40:27.601Z,7.42
2018-11-14T01:40:28.200Z,7.55
2018-11-14T01:40:28.801Z,7.52
2018-11-14T01:40:29.401Z,7.50
2018-11-14T01:40:30.003Z,7.52
2018-11-14T01:40:30.602Z,7.41
2018-11-14T01:40:31.200Z,7.55
2018-11-14T01:41:24.657Z,7.49
2018-11-14T01:41:25.254Z,7.50
2018-11-14T01:41:25.854Z,7.59
2018-11-14T01:41:26.454Z,7.55
2018-11-14T01:41:27.053Z,7.49
2018-11-14T01:41:27.653Z,7.52
2018-11-14T01:41:28.253Z,7.55
2018-11-14T01:41:28.854Z,7.50
2018-11-14T01:42:22.309Z,7.50
2018-11-14T01:42:22.905Z,7.52
2018-11-14T01:42:23.506Z,7.50
2018-11-14T01:42:24.105Z,7.52
2018-11-14T01:42:24.706Z,7.56
2018-11-14T01:42:25.354Z,7.47
2018-11-14T01:42:25.905Z,7.49
2018-11-14T01:42:26.504Z,7.53
2018-11-14T01:43:20.985Z,7.52
2018-11-14T01:43:21.583Z,7.49
2018-11-14T01:43:22.182Z,7.52
2018-11-14T01:43:22.781Z,7.53
2018-11-14T01:43:23.382Z,7.53
2018-11-14T01:43:23.980Z,7.55
2018-11-14T01:43:24.579Z,7.56
2018-11-14T01:43:25.180Z,7.53
2018-11-14T01:44:19.659Z,7.56
2018-11-14T01:44:20.256Z,7.50
2018-11-14T01:44:20.856Z,7.55
2018-11-14T01:44:21.456Z,7.49
2018-11-14T01:44:22.057Z,7.58
2018-11-14T01:44:22.657Z,7.52
2018-11-14T01:44:23.254Z,7.55
2018-11-14T01:44:23.857Z,7.53
2018-11-14T01:45:18.366Z,7.53
2018-11-14T01:45:18.932Z,7.62
2018-11-14T01:45:19.530Z,7.60
2018-11-14T01:45:20.131Z,7.58
2018-11-14T01:45:20.734Z,7.58
2018-11-14T01:45:21.331Z,7.60
2018-11-14T01:45:21.932Z,7.59
2018-11-14T01:45:22.532Z,7.66
2018-11-14T01:46:15.990Z,7.60
2018-11-14T01:46:16.585Z,7.66
2018-11-14T01:46:17.184Z,7.59
2018-11-14T01:46:17.785Z,7.58
2018-11-14T01:46:18.385Z,7.62
2018-11-14T01:46:18.983Z,7.67
2018-11-14T01:46:19.582Z,7.66
2018-11-14T01:46:20.186Z,7.66
2018-11-14T01:47:14.663Z,7.62
2018-11-14T01:47:15.262Z,7.62
2018-11-14T01:47:15.860Z,7.79
2018-11-14T01:47:16.458Z,7.66
2018-11-14T01:47:17.057Z,7.79
2018-11-14T01:47:17.660Z,7.66
2018-11-14T01:47:18.258Z,7.72
2018-11-14T01:47:18.858Z,7.66
2018-11-14T01:48:12.315Z,7.66
2018-11-14T01:48:12.912Z,7.77
2018-11-14T01:48:13.511Z,7.75
2018-11-14T01:48:14.111Z,7.67
2018-11-14T01:48:14.713Z,7.63
2018-11-14T01:48:15.312Z,7.71
2018-11-14T01:48:15.911Z,7.63
2018-11-14T01:48:16.513Z,7.77
2018-11-14T01:49:09.966Z,7.71
2018-11-14T01:49:10.563Z,7.77
2018-11-14T01:49:11.164Z,7.71
2018-11-14T01:49:11.763Z,7.69
2018-11-14T01:49:12.363Z,7.71
2018-11-14T01:49:12.962Z,7.75
2018-11-14T01:49:13.563Z,7.75
2018-11-14T01:49:14.164Z,7.72
2018-11-14T01:50:07.619Z,7.82
2018-11-14T01:50:08.215Z,7.77
2018-11-14T01:50:08.816Z,7.79
2018-11-14T01:50:09.414Z,7.79
2018-11-14T01:50:10.014Z,7.78
2018-11-14T01:50:10.613Z,7.78
2018-11-14T01:50:11.215Z,7.84
2018-11-14T01:50:11.814Z,7.84
2018-11-14T01:51:05.302Z,7.82
2018-11-14T01:51:05.868Z,7.85
2018-11-14T01:51:06.467Z,7.85
2018-11-14T01:51:07.066Z,7.84
2018-11-14T01:51:07.669Z,7.87
2018-11-14T01:51:08.267Z,7.92
2018-11-14T01:51:08.868Z,7.90
2018-11-14T01:51:09.465Z,7.87
2018-11-14T01:52:02.924Z,7.94
2018-11-14T01:52:03.519Z,7.94
2018-11-14T01:52:04.119Z,8.02
2018-11-14T01:52:04.718Z,7.96
2018-11-14T01:52:05.319Z,7.94
2018-11-14T01:52:05.920Z,7.96
2018-11-14T01:52:06.518Z,7.99
2018-11-14T01:52:07.119Z,7.99
2018-11-14T01:53:00.577Z,8.02
2018-11-14T01:53:01.171Z,8.12
2018-11-14T01:53:01.772Z,8.10
2018-11-14T01:53:02.369Z,8.08
2018-11-14T01:53:02.969Z,8.04
2018-11-14T01:53:03.567Z,8.08
2018-11-14T01:53:04.169Z,8.10
2018-11-14T01:53:04.768Z,8.11
2018-11-14T01:53:58.226Z,8.03
2018-11-14T01:53:58.823Z,8.04
2018-11-14T01:53:59.422Z,8.10
2018-11-14T01:54:00.023Z,8.07
2018-11-14T01:54:00.626Z,8.10
2018-11-14T01:54:01.225Z,8.02
2018-11-14T01:54:01.823Z,8.11
2018-11-14T01:54:02.422Z,8.10
2018-11-14T01:54:55.878Z,8.07
2018-11-14T01:54:56.474Z,7.99
2018-11-14T01:54:57.074Z,7.99
2018-11-14T01:54:57.673Z,8.04
2018-11-14T01:54:58.274Z,7.99
2018-11-14T01:54:58.875Z,8.11
2018-11-14T01:54:59.474Z,8.02
2018-11-14T01:55:00.082Z,8.08
2018-11-14T01:55:54.552Z,8.14
2018-11-14T01:55:55.150Z,8.07
2018-11-14T01:55:55.749Z,8.12
2018-11-14T01:55:56.349Z,7.99
2018-11-14T01:55:56.950Z,8.11
2018-11-14T01:55:57.551Z,8.02
2018-11-14T01:55:58.150Z,7.99
2018-11-14T01:55:58.749Z,8.02
2018-11-14T01:56:53.263Z,8.11
2018-11-14T01:56:53.825Z,8.14
2018-11-14T01:56:54.424Z,7.99
2018-11-14T01:56:55.031Z,8.00
2018-11-14T01:56:55.624Z,8.02
2018-11-14T01:56:56.226Z,8.00
2018-11-14T01:56:56.824Z,8.07
2018-11-14T01:56:57.424Z,7.97
2018-11-14T01:57:50.881Z,8.10
2018-11-14T01:57:51.478Z,8.11
2018-11-14T01:57:52.077Z,8.02
2018-11-14T01:57:52.675Z,8.02
2018-11-14T01:57:53.285Z,7.99
2018-11-14T01:57:53.879Z,7.97
2018-11-14T01:57:54.476Z,8.00
2018-11-14T01:57:55.078Z,7.99
2018-11-14T01:58:49.555Z,8.03
2018-11-14T01:58:50.153Z,7.99
2018-11-14T01:58:50.756Z,8.03
2018-11-14T01:58:51.352Z,8.00
2018-11-14T01:58:51.952Z,7.99
2018-11-14T01:58:52.551Z,8.02
2018-11-14T01:58:53.151Z,7.99
2018-11-14T01:58:53.750Z,8.00
2018-11-14T01:59:48.231Z,8.14
2018-11-14T01:59:48.832Z,8.02
2018-11-14T01:59:49.428Z,8.00
2018-11-14T01:59:50.027Z,8.00
2018-11-14T01:59:50.629Z,8.08
2018-11-14T01:59:51.229Z,8.00
2018-11-14T01:59:51.829Z,8.04
2018-11-14T01:59:52.428Z,8.02
2018-11-14T02:00:45.883Z,8.03
2018-11-14T02:00:46.480Z,7.99
2018-11-14T02:00:47.081Z,8.15
2018-11-14T02:00:47.680Z,8.04
2018-11-14T02:00:48.280Z,7.96
2018-11-14T02:00:48.881Z,8.02
2018-11-14T02:00:49.479Z,8.03
2018-11-14T02:00:50.080Z,8.08
2018-11-14T02:01:43.537Z,8.00
2018-11-14T02:01:44.132Z,8.03
2018-11-14T02:01:44.733Z,8.04
2018-11-14T02:01:45.333Z,7.99
2018-11-14T02:01:45.936Z,8.04
2018-11-14T02:01:46.532Z,8.04
2018-11-14T02:01:47.133Z,8.07
2018-11-14T02:01:47.732Z,7.99
2018-11-14T02:02:42.234Z,8.03
2018-11-14T02:02:42.809Z,8.08
2018-11-14T02:02:43.407Z,8.07
2018-11-14T02:02:44.008Z,8.03
2018-11-14T02:02:44.607Z,8.14
2018-11-14T02:02:45.207Z,8.12
2018-11-14T02:02:45.809Z,8.02
2018-11-14T02:02:46.405Z,8.11
2018-11-14T02:03:40.887Z,8.08
2018-11-14T02:03:41.484Z,8.03
2018-11-14T02:03:42.083Z,8.04
2018-11-14T02:03:42.682Z,7.96
2018-11-14T02:03:43.282Z,8.08
2018-11-14T02:03:43.880Z,7.99
2018-11-14T02:03:44.482Z,8.07
2018-11-14T02:03:45.081Z,8.07
2018-11-14T02:04:39.563Z,8.12
2018-11-14T02:04:40.164Z,8.00
2018-11-14T02:04:40.759Z,8.04
2018-11-14T02:04:41.358Z,8.08
2018-11-14T02:04:41.959Z,8.02
2018-11-14T02:04:42.560Z,8.07
2018-11-14T02:04:43.158Z,8.12
2018-11-14T02:04:43.759Z,8.03
2018-11-14T02:05:37.216Z,8.02
2018-11-14T02:05:37.812Z,8.07
2018-11-14T02:05:38.412Z,8.11
2018-11-14T02:05:39.011Z,8.11
2018-11-14T02:05:39.612Z,8.11
2018-11-14T02:05:40.210Z,8.07
2018-11-14T02:05:40.814Z,8.10
2018-11-14T02:05:41.410Z,8.12
2018-11-14T02:06:34.897Z,8.11
2018-11-14T02:06:35.462Z,8.07
2018-11-14T02:06:36.062Z,7.99
2018-11-14T02:06:36.662Z,8.08
2018-11-14T02:06:37.262Z,8.10
2018-11-14T02:06:37.863Z,8.15
2018-11-14T02:06:38.462Z,8.07
2018-11-14T02:06:39.062Z,8.07
2018-11-14T02:07:32.549Z,8.10
2018-11-14T02:07:33.116Z,8.07
2018-11-14T02:07:33.715Z,8.11
2018-11-14T02:07:34.315Z,8.07
2018-11-14T02:07:34.915Z,8.10
2018-11-14T02:07:35.515Z,7.97
2018-11-14T02:07:36.116Z,8.00
2018-11-14T02:07:36.713Z,8.11
2018-11-14T02:08:31.198Z,8.07
2018-11-14T02:08:31.789Z,8.12
2018-11-14T02:08:32.389Z,8.08
2018-11-14T02:08:32.989Z,8.07
2018-11-14T02:08:33.589Z,8.07
2018-11-14T02:08:34.188Z,8.04
2018-11-14T02:08:34.787Z,8.11
2018-11-14T02:08:35.388Z,8.03
2018-11-14T02:09:28.846Z,8.07
2018-11-14T02:09:29.442Z,8.07
2018-11-14T02:09:30.043Z,8.08
2018-11-14T02:09:30.642Z,8.03
2018-11-14T02:09:31.244Z,8.12
2018-11-14T02:09:31.842Z,8.08
2018-11-14T02:09:32.443Z,8.02
2018-11-14T02:09:33.042Z,8.07
2018-11-14T02:10:27.522Z,8.07
2018-11-14T02:10:28.117Z,8.00
2018-11-14T02:10:28.716Z,8.02
2018-11-14T02:10:29.317Z,8.10
2018-11-14T02:10:29.916Z,8.10
2018-11-14T02:10:30.519Z,7.97
2018-11-14T02:10:31.116Z,8.08
2018-11-14T02:10:31.714Z,8.08
2018-11-14T02:11:25.176Z,8.07
2018-11-14T02:11:25.768Z,8.12
2018-11-14T02:11:26.368Z,8.08
2018-11-14T02:11:26.969Z,8.04
2018-11-14T02:11:27.569Z,8.10
2018-11-14T02:11:28.170Z,8.08
2018-11-14T02:11:28.771Z,8.02
2018-11-14T02:11:29.368Z,8.11
2018-11-14T02:12:22.825Z,8.10
2018-11-14T02:12:23.422Z,8.11
2018-11-14T02:12:24.021Z,8.10
2018-11-14T02:12:24.621Z,8.11
2018-11-14T02:12:25.222Z,8.11
2018-11-14T02:12:25.825Z,8.12
2018-11-14T02:12:26.421Z,8.04
2018-11-14T02:12:27.022Z,8.02
2018-11-14T02:13:21.524Z,8.07
2018-11-14T02:13:22.095Z,8.11
2018-11-14T02:13:22.696Z,8.08
2018-11-14T02:13:23.295Z,8.02
2018-11-14T02:13:23.896Z,8.02
2018-11-14T02:13:24.495Z,8.07
2018-11-14T02:13:25.095Z,8.02
2018-11-14T02:13:25.694Z,7.96
2018-11-14T02:14:20.175Z,8.11
2018-11-14T02:14:20.772Z,7.94
2018-11-14T02:14:21.371Z,8.08
2018-11-14T02:14:21.972Z,8.14
2018-11-14T02:14:22.571Z,8.08
2018-11-14T02:14:23.175Z,8.07
2018-11-14T02:14:23.771Z,8.02
2018-11-14T02:14:24.372Z,8.00
2018-11-14T02:15:17.830Z,8.08
2018-11-14T02:15:18.425Z,8.00
2018-11-14T02:15:19.024Z,8.00
2018-11-14T02:15:19.623Z,8.00
2018-11-14T02:15:20.225Z,8.07
2018-11-14T02:15:20.829Z,8.07
2018-11-14T02:15:21.424Z,8.14
2018-11-14T02:15:22.038Z,8.11
2018-11-14T02:16:15.481Z,8.10
2018-11-14T02:16:16.076Z,8.03
2018-11-14T02:16:16.676Z,8.00
2018-11-14T02:16:17.275Z,8.02
2018-11-14T02:16:17.876Z,8.03
2018-11-14T02:16:18.476Z,8.12
2018-11-14T02:16:19.075Z,8.07
2018-11-14T02:16:19.675Z,8.07
2018-11-14T02:17:14.155Z,8.07
2018-11-14T02:17:14.750Z,8.08
2018-11-14T02:17:15.351Z,8.02
2018-11-14T02:17:15.951Z,8.12
2018-11-14T02:17:16.553Z,8.08
2018-11-14T02:17:17.150Z,8.08
2018-11-14T02:17:17.751Z,8.07
2018-11-14T02:17:18.351Z,8.12
2018-11-14T02:18:12.854Z,8.04
2018-11-14T02:18:13.429Z,7.97
2018-11-14T02:18:14.027Z,8.02
2018-11-14T02:18:14.627Z,8.04
2018-11-14T02:18:15.226Z,8.02
2018-11-14T02:18:15.828Z,8.02
2018-11-14T02:18:16.426Z,8.02
2018-11-14T02:18:17.026Z,8.11
2018-11-14T02:19:11.507Z,7.99
2018-11-14T02:19:12.102Z,8.10
2018-11-14T02:19:12.702Z,8.03
2018-11-14T02:19:13.303Z,8.03
2018-11-14T02:19:13.902Z,8.03
2018-11-14T02:19:14.502Z,8.03
2018-11-14T02:19:15.102Z,8.00
2018-11-14T02:19:15.701Z,7.96
2018-11-14T02:20:10.179Z,8.04
2018-11-14T02:20:10.778Z,8.10
2018-11-14T02:20:11.379Z,8.03
2018-11-14T02:20:11.977Z,8.04
2018-11-14T02:20:12.578Z,8.11
2018-11-14T02:20:13.179Z,8.08
2018-11-14T02:20:13.778Z,8.08
2018-11-14T02:20:14.378Z,8.10
2018-11-14T02:21:08.856Z,8.08
2018-11-14T02:21:09.453Z,8.04
2018-11-14T02:21:10.053Z,8.07
2018-11-14T02:21:10.655Z,8.14
2018-11-14T02:21:11.253Z,8.14
2018-11-14T02:21:11.852Z,8.11
2018-11-14T02:21:12.453Z,8.02
2018-11-14T02:21:13.053Z,8.15
2018-11-14T02:22:07.532Z,8.11
2018-11-14T02:22:08.130Z,8.11
2018-11-14T02:22:08.733Z,8.11
2018-11-14T02:22:09.329Z,8.07
2018-11-14T02:22:09.929Z,8.07
2018-11-14T02:22:10.529Z,8.07
2018-11-14T02:22:11.129Z,8.11
2018-11-14T02:22:11.729Z,8.10
2018-11-14T02:23:05.211Z,8.07
2018-11-14T02:23:05.783Z,8.10
2018-11-14T02:23:06.382Z,8.02
2018-11-14T02:23:06.982Z,8.10
2018-11-14T02:23:07.582Z,8.04
2018-11-14T02:23:08.186Z,8.08
2018-11-14T02:23:08.782Z,8.08
2018-11-14T02:23:09.382Z,8.10
2018-11-14T02:24:02.837Z,8.03
2018-11-14T02:24:03.433Z,8.04
2018-11-14T02:24:04.035Z,7.96
2018-11-14T02:24:04.638Z,8.08
2018-11-14T02:24:05.232Z,8.07
2018-11-14T02:24:05.831Z,8.11
2018-11-14T02:24:06.431Z,8.10
2018-11-14T02:24:07.031Z,8.03
2018-11-14T02:25:00.488Z,8.03
2018-11-14T02:25:01.085Z,8.08
2018-11-14T02:25:01.686Z,8.12
2018-11-14T02:25:02.287Z,8.03
2018-11-14T02:25:02.885Z,8.12
2018-11-14T02:25:03.486Z,7.97
2018-11-14T02:25:04.091Z,8.07
2018-11-14T02:25:04.684Z,8.12
2018-11-14T02:25:58.139Z,8.02
2018-11-14T02:25:58.738Z,8.03
2018-11-14T02:25:59.336Z,8.07
2018-11-14T02:25:59.936Z,8.07
2018-11-14T02:26:00.537Z,8.07
2018-11-14T02:26:01.137Z,8.03
2018-11-14T02:26:01.736Z,8.08
2018-11-14T02:26:02.338Z,8.07
2018-11-14T02:26:55.796Z,8.07
2018-11-14T02:26:56.389Z,8.10
2018-11-14T02:26:56.987Z,7.97
2018-11-14T02:26:57.588Z,8.00
2018-11-14T02:26:58.189Z,8.04
2018-11-14T02:26:58.789Z,8.03
2018-11-14T02:26:59.387Z,8.04
2018-11-14T02:26:59.990Z,8.08
2018-11-14T02:27:53.476Z,8.08
2018-11-14T02:27:54.040Z,8.14
2018-11-14T02:27:54.640Z,8.08
2018-11-14T02:27:55.240Z,8.03
2018-11-14T02:27:55.840Z,8.10
2018-11-14T02:27:56.440Z,8.11
2018-11-14T02:27:57.040Z,8.08
2018-11-14T02:27:57.640Z,8.11
2018-11-14T02:28:51.095Z,8.10
2018-11-14T02:28:51.692Z,8.10
2018-11-14T02:28:52.293Z,8.08
2018-11-14T02:28:52.893Z,8.08
2018-11-14T02:28:53.491Z,8.00
2018-11-14T02:28:54.092Z,8.02
2018-11-14T02:28:54.691Z,8.00
2018-11-14T02:28:55.290Z,8.10
2018-11-14T02:29:49.770Z,8.07
2018-11-14T02:29:50.367Z,8.10
2018-11-14T02:29:50.966Z,8.07
2018-11-14T02:29:51.568Z,8.00
2018-11-14T02:29:52.167Z,8.04
2018-11-14T02:29:52.766Z,7.96
2018-11-14T02:29:53.368Z,8.03
2018-11-14T02:29:53.966Z,8.08
2018-11-14T02:30:48.449Z,8.12
2018-11-14T02:30:49.042Z,8.11
2018-11-14T02:30:49.644Z,8.10
2018-11-14T02:30:50.243Z,8.03
2018-11-14T02:30:50.843Z,8.04
2018-11-14T02:30:51.443Z,7.99
2018-11-14T02:30:52.042Z,8.11
2018-11-14T02:30:52.642Z,7.99
2018-11-14T02:31:46.100Z,8.14
2018-11-14T02:31:46.699Z,8.10
2018-11-14T02:31:47.295Z,7.99
2018-11-14T02:31:47.896Z,8.02
2018-11-14T02:31:48.495Z,8.04
2018-11-14T02:31:49.095Z,7.99
2018-11-14T02:31:49.695Z,8.02
2018-11-14T02:31:50.294Z,8.02
2018-11-14T02:32:44.774Z,8.11
2018-11-14T02:32:45.375Z,8.12
2018-11-14T02:32:45.974Z,8.12
2018-11-14T02:32:46.569Z,8.11
2018-11-14T02:32:47.187Z,8.12
2018-11-14T02:32:47.770Z,8.11
2018-11-14T02:32:48.369Z,8.14
2018-11-14T02:32:48.970Z,8.12
2018-11-14T02:33:43.475Z,8.12
2018-11-14T02:33:44.049Z,8.07
2018-11-14T02:33:44.644Z,8.00
2018-11-14T02:33:45.244Z,8.14
2018-11-14T02:33:45.844Z,8.11
2018-11-14T02:33:46.446Z,8.11
2018-11-14T02:33:47.044Z,8.14
2018-11-14T02:33:47.646Z,8.12
2018-11-14T02:34:41.103Z,8.04
2018-11-14T02:34:41.702Z,8.12
2018-11-14T02:34:42.302Z,8.12
2018-11-14T02:34:42.898Z,8.11
2018-11-14T02:34:43.499Z,8.11
2018-11-14T02:34:44.100Z,8.15
2018-11-14T02:34:44.703Z,8.10
2018-11-14T02:34:45.298Z,8.10
2018-11-14T02:35:38.753Z,8.14
2018-11-14T02:35:39.408Z,8.10
2018-11-14T02:35:39.950Z,8.14
2018-11-14T02:35:40.551Z,8.12
2018-11-14T02:35:41.149Z,8.02
2018-11-14T02:35:41.750Z,8.11
2018-11-14T02:35:42.349Z,8.15
2018-11-14T02:35:42.950Z,8.00
2018-11-14T02:36:36.445Z,8.12
2018-11-14T02:36:37.003Z,8.14
2018-11-14T02:36:37.606Z,8.15
2018-11-14T02:36:38.201Z,8.15
2018-11-14T02:36:38.801Z,8.11
2018-11-14T02:36:39.407Z,8.15
2018-11-14T02:36:40.008Z,8.08
2018-11-14T02:36:40.600Z,8.11
2018-11-14T02:37:35.081Z,8.14
2018-11-14T02:37:35.677Z,8.12
2018-11-14T02:37:36.299Z,8.11
2018-11-14T02:37:36.876Z,8.08
2018-11-14T02:37:37.477Z,8.02
2018-11-14T02:37:38.076Z,8.17
2018-11-14T02:37:38.675Z,8.14
2018-11-14T02:37:39.278Z,8.10
2018-11-14T02:38:32.751Z,8.02
2018-11-14T02:38:33.324Z,8.12
2018-11-14T02:38:33.923Z,8.14
2018-11-14T02:38:34.522Z,8.04
2018-11-14T02:38:35.123Z,8.10
2018-11-14T02:38:35.722Z,8.12
2018-11-14T02:38:36.324Z,8.10
2018-11-14T02:38:36.924Z,8.10
2018-11-14T02:39:30.380Z,8.11
2018-11-14T02:39:30.975Z,8.02
2018-11-14T02:39:31.576Z,8.11
2018-11-14T02:39:32.176Z,8.14
2018-11-14T02:39:32.774Z,8.08
2018-11-14T02:39:33.376Z,8.11
2018-11-14T02:39:33.975Z,7.99
2018-11-14T02:39:34.578Z,7.99
2018-11-14T02:40:28.036Z,8.00
2018-11-14T02:40:28.628Z,7.96
2018-11-14T02:40:29.229Z,7.99
2018-11-14T02:40:29.827Z,8.11
2018-11-14T02:40:30.428Z,8.04
2018-11-14T02:40:31.028Z,7.99
2018-11-14T02:40:31.627Z,7.99
2018-11-14T02:40:32.226Z,8.04
2018-11-14T02:41:25.687Z,7.99
2018-11-14T02:41:26.281Z,8.04
2018-11-14T02:41:26.880Z,8.02
2018-11-14T02:41:27.479Z,7.99
2018-11-14T02:41:28.086Z,8.00
2018-11-14T02:41:28.679Z,7.99
2018-11-14T02:41:29.280Z,8.14
2018-11-14T02:41:29.879Z,8.07
2018-11-14T02:42:24.359Z,8.11
2018-11-14T02:42:24.954Z,8.00
2018-11-14T02:42:25.554Z,7.99
2018-11-14T02:42:26.155Z,8.00
2018-11-14T02:42:26.754Z,8.11
2018-11-14T02:42:27.353Z,8.08
2018-11-14T02:42:27.954Z,8.04
2018-11-14T02:42:28.558Z,8.11
2018-11-14T02:43:23.057Z,7.97
2018-11-14T02:43:23.632Z,7.99
2018-11-14T02:43:24.233Z,8.07
2018-11-14T02:43:24.835Z,8.08
2018-11-14T02:43:25.430Z,8.10
2018-11-14T02:43:26.033Z,8.11
2018-11-14T02:43:26.631Z,8.11
2018-11-14T02:43:27.231Z,8.11
2018-11-14T02:44:21.711Z,8.08
2018-11-14T02:44:22.306Z,8.07
2018-11-14T02:44:22.906Z,8.08
2018-11-14T02:44:23.506Z,8.11
2018-11-14T02:44:24.105Z,8.10
2018-11-14T02:44:24.705Z,8.10
2018-11-14T02:44:25.307Z,8.07
2018-11-14T02:44:25.907Z,8.03
2018-11-14T02:45:19.365Z,8.07
2018-11-14T02:45:20.017Z,8.07
2018-11-14T02:45:20.559Z,8.04
2018-11-14T02:45:21.156Z,8.10
2018-11-14T02:45:21.755Z,8.10
2018-11-14T02:45:22.355Z,8.08
2018-11-14T02:45:22.956Z,8.02
2018-11-14T02:45:23.557Z,8.02
2018-11-14T02:46:18.038Z,7.97
2018-11-14T02:46:18.635Z,7.99
2018-11-14T02:46:19.233Z,8.07
2018-11-14T02:46:19.833Z,8.00
2018-11-14T02:46:20.433Z,8.07
2018-11-14T02:46:21.032Z,8.07
2018-11-14T02:46:21.632Z,7.94
2018-11-14T02:46:22.233Z,8.03
2018-11-14T02:47:16.712Z,8.04
2018-11-14T02:47:17.313Z,7.96
2018-11-14T02:47:17.909Z,8.07
2018-11-14T02:47:18.509Z,8.02
2018-11-14T02:47:19.111Z,8.02
2018-11-14T02:47:19.713Z,8.07
2018-11-14T02:47:20.309Z,8.10
2018-11-14T02:47:20.909Z,8.03
2018-11-14T02:48:15.411Z,8.04
2018-11-14T02:48:15.985Z,8.07
2018-11-14T02:48:16.584Z,8.04
2018-11-14T02:48:17.186Z,8.02
2018-11-14T02:48:17.786Z,8.00
2018-11-14T02:48:18.386Z,8.04
2018-11-14T02:48:18.983Z,7.96
2018-11-14T02:48:19.584Z,8.04
2018-11-14T02:49:14.064Z,7.93
2018-11-14T02:49:14.661Z,8.02
2018-11-14T02:49:15.260Z,8.00
2018-11-14T02:49:15.861Z,7.99
2018-11-14T02:49:16.460Z,7.99
2018-11-14T02:49:17.060Z,7.99
2018-11-14T02:49:17.660Z,7.96
2018-11-14T02:49:18.259Z,7.97
2018-11-14T02:50:11.718Z,7.99
2018-11-14T02:50:12.313Z,7.92
2018-11-14T02:50:12.912Z,7.99
2018-11-14T02:50:13.512Z,7.97
2018-11-14T02:50:14.113Z,7.94
2018-11-14T02:50:14.713Z,7.99
2018-11-14T02:50:15.313Z,7.97
2018-11-14T02:50:15.912Z,7.99
2018-11-14T02:51:09.370Z,8.00
2018-11-14T02:51:09.964Z,7.99
2018-11-14T02:51:10.564Z,7.96
2018-11-14T02:51:11.162Z,8.00
2018-11-14T02:51:11.764Z,8.04
2018-11-14T02:51:12.362Z,7.99
2018-11-14T02:51:12.963Z,8.00
2018-11-14T02:51:13.562Z,7.99
2018-11-14T02:52:08.043Z,7.89
2018-11-14T02:52:08.643Z,7.93
2018-11-14T02:52:09.241Z,7.93
2018-11-14T02:52:09.840Z,7.94
2018-11-14T02:52:10.441Z,7.85
2018-11-14T02:52:11.039Z,7.85
2018-11-14T02:52:11.641Z,7.96
2018-11-14T02:52:12.241Z,7.87
2018-11-14T02:53:06.743Z,7.92
2018-11-14T02:53:07.317Z,7.96
2018-11-14T02:53:07.915Z,7.96
2018-11-14T02:53:08.519Z,8.00
2018-11-14T02:53:09.116Z,7.97
2018-11-14T02:53:09.715Z,7.96
2018-11-14T02:53:10.314Z,7.90
2018-11-14T02:53:10.915Z,7.90
2018-11-14T02:54:04.373Z,7.89
2018-11-14T02:54:04.968Z,7.85
2018-11-14T02:54:05.585Z,7.90
2018-11-14T02:54:06.168Z,7.93
2018-11-14T02:54:06.767Z,7.92
2018-11-14T02:54:07.366Z,7.93
2018-11-14T02:54:07.967Z,7.92
2018-11-14T02:54:08.567Z,8.00
2018-11-14T02:55:03.046Z,7.89
2018-11-14T02:55:03.644Z,7.99
2018-11-14T02:55:04.245Z,8.02
2018-11-14T02:55:04.841Z,7.93
2018-11-14T02:55:05.443Z,7.99
2018-11-14T02:55:06.044Z,8.04
2018-11-14T02:55:06.642Z,7.93
2018-11-14T02:55:07.242Z,7.97
2018-11-14T02:56:01.723Z,7.89
2018-11-14T02:56:02.320Z,7.89
2018-11-14T02:56:02.919Z,7.89
2018-11-14T02:56:03.520Z,7.89
2018-11-14T02:56:04.118Z,7.89
2018-11-14T02:56:04.718Z,7.90
2018-11-14T02:56:05.319Z,7.93
2018-11-14T02:56:05.918Z,7.93
2018-11-14T02:57:00.398Z,7.89
2018-11-14T02:57:00.993Z,7.90
2018-11-14T02:57:01.595Z,7.93
2018-11-14T02:57:02.192Z,7.84
2018-11-14T02:57:02.795Z,7.90
2018-11-14T02:57:03.394Z,7.92
2018-11-14T02:57:03.994Z,7.89
2018-11-14T02:57:04.595Z,7.90
2018-11-14T02:57:59.073Z,7.84
2018-11-14T02:57:59.670Z,7.82
2018-11-14T02:58:00.270Z,7.93
2018-11-14T02:58:00.872Z,7.87
2018-11-14T02:58:01.469Z,7.92
2018-11-14T02:58:02.068Z,7.90
2018-11-14T02:58:02.668Z,7.92
2018-11-14T02:58:03.269Z,7.85
2018-11-14T02:58:56.750Z,7.85
2018-11-14T02:58:57.323Z,7.90
2018-11-14T02:58:57.924Z,7.85
2018-11-14T02:58:58.523Z,7.85
2018-11-14T02:58:59.124Z,7.90
2018-11-14T02:58:59.739Z,7.84
2018-11-14T02:59:00.322Z,7.85
2018-11-14T02:59:00.922Z,7.81
2018-11-14T02:59:55.399Z,7.79
2018-11-14T02:59:55.998Z,7.87
2018-11-14T02:59:56.599Z,7.84
2018-11-14T02:59:57.197Z,7.89
2018-11-14T02:59:57.798Z,7.92
2018-11-14T02:59:58.397Z,7.90
2018-11-14T02:59:58.997Z,7.87
2018-11-14T02:59:59.597Z,7.87
2018-11-14T03:00:54.077Z,7.85
2018-11-14T03:00:54.678Z,7.84
2018-11-14T03:00:55.273Z,7.82
2018-11-14T03:00:55.873Z,7.82
2018-11-14T03:00:56.472Z,7.81
2018-11-14T03:00:57.072Z,7.82
2018-11-14T03:00:57.673Z,7.84
2018-11-14T03:00:58.271Z,7.84
2018-11-14T03:01:51.731Z,7.77
2018-11-14T03:01:52.327Z,7.77
2018-11-14T03:01:52.926Z,7.81
2018-11-14T03:01:53.530Z,7.77
2018-11-14T03:01:54.125Z,7.81
2018-11-14T03:01:54.724Z,7.85
2018-11-14T03:01:55.323Z,7.81
2018-11-14T03:01:55.928Z,7.81
2018-11-14T03:02:50.405Z,7.78
2018-11-14T03:02:51.001Z,7.79
2018-11-14T03:02:51.600Z,7.78
2018-11-14T03:02:52.199Z,7.82
2018-11-14T03:02:52.801Z,7.72
2018-11-14T03:02:53.400Z,7.79
2018-11-14T03:02:53.999Z,7.82
2018-11-14T03:02:54.603Z,7.82
2018-11-14T03:03:48.081Z,7.78
2018-11-14T03:03:48.655Z,7.82
2018-11-14T03:03:49.251Z,7.82
2018-11-14T03:03:49.853Z,7.75
2018-11-14T03:03:50.451Z,7.78
2018-11-14T03:03:51.051Z,7.79
2018-11-14T03:03:51.649Z,7.78
2018-11-14T03:03:52.250Z,7.79
2018-11-14T03:04:45.708Z,7.75
2018-11-14T03:04:46.306Z,7.78
2018-11-14T03:04:46.904Z,7.77
2018-11-14T03:04:47.503Z,7.75
2018-11-14T03:04:48.104Z,7.75
2018-11-14T03:04:48.703Z,7.74
2018-11-14T03:04:49.303Z,7.77
2018-11-14T03:04:49.905Z,7.78
2018-11-14T03:05:44.383Z,7.75
2018-11-14T03:05:44.980Z,7.79
2018-11-14T03:05:45.579Z,7.79
2018-11-14T03:05:46.180Z,7.74
2018-11-14T03:05:46.784Z,7.82
2018-11-14T03:05:47.378Z,7.77
2018-11-14T03:05:47.978Z,7.72